Mount Kisco, NY

6:16 PM EST on February 08, 2016 (GMT -0500)
Bedford Hills | | Change Station
CLOSE
Current Station
Personal Weather Station
Location: Bedford Hills, NY
Elevation: 390 ft
Nearby Weather Stations

Elev 390 ft 41.24 °N, 73.71 °W | Updated 1 minute ago

Snow
Snow
25.8 °F
Feels Like 26 °F
N
0.0
Wind Variable Wind from East
Gusts 0.0 mph

Today
High -- | Low -- °F
--% Chance of Precip.
Yesterday
High -- | Low -- °F
Precip. -- in
Pressure 29.77 in
Visibility 8.0 miles
Clouds Few 1600 ft
Mostly Cloudy 4900 ft
Overcast 6500 ft
Windchill 26 °F
Dew Point 23 °F
Humidity 90%
Rainfall 0.00 in
Snow Depth Not available.
6:58 AM 5:19 PM
New Moon, 0% visible
METAR KHPN 082256Z 36006KT 8SM -SN FEW016 BKN049 OVC065 M03/M06 A2974 RMK AO2 SLP079 P0000 T10281061
Pressure 29.77 in
Visibility 8.0 miles
Clouds Few 1600 ft
Mostly Cloudy 4900 ft
Overcast 6500 ft
Windchill 26 °F
Dew Point 23 °F
Humidity 90%
Rainfall 0.00 in
Snow Depth Not available.
6:58 AM 5:19 PM
New Moon, 0% visible
METAR KHPN 082256Z 36006KT 8SM -SN FEW016 BKN049 OVC065 M03/M06 A2974 RMK AO2 SLP079 P0000 T10281061
Winter Storm will continue impacting eastern New England through Monday night with a combination of heavy snow and strong winds, resulting in dangerous travel conditions. In parts of southeast Massachusetts, blizzard conditions are possible along with tree damage, some power outages and coastal flooding. As of late Monday morning, winds had gusted up to 57 mph on Nantucket Island and coastal flooding was reported in several locations along the Massachusetts coast.

10-Day Weather Forecast

Almanac

Astronomy

Feb. 08, 2016 Rise Set
Actual Time
Civil Twilight
Nautical Twilight
Astronomical Twilight
Moon
Length of Visible Light
Length of Day
Tomorrow will be .
, % of the Moon is Illuminated

Today's Extremes

State Highs State Lows

Community

WunderPhotos

Upload Photos

1,891,525 photos uploaded!

WunderBlog® & News

Nearby

Air Quality

  Air Quality AQ Index Pollutant
Not available.

Snow Depth

Station Depth Elevation

Earthquake Activity

City Distance Mag. Time & Date
Minimum magnitude displayed is 2.5.

Coastal Water Temperatures

Place Temperature

Stations

Nearby Weather Stations

Station Location Temp. Windchill Dew Point Humidity Wind Precip. Elev Updated Type
                   

Watches & Warnings

There are currently no watches in effect.